Terminal Aerodrome Forecast
Issued by NWS Wilmington, OH

Current Version | Previous Version | Graphics & Text | Print | Product List | Glossary On
Versions: 1 2 3 4 5 6 7 8 9 10 11 12 13 14 15 16 17 18 19 20 21 22 23 24 25 26 27 28 29 30 31 32
000
FTUS41 KILN 162125 AAB
TAFILN
TAF AMD
KILN 162125Z 1621/1718 12005KT P6SM VCSH SCT015 BKN090
     FM170100 14006KT 2SM -SHRA BR OVC004
     FM170800 18008KT 2SM -SHRA BR OVC006 WS020/20040KT
     FM171600 21012G20KT P6SM BKN020 OVC080=

USA.gov is the U.S. government's official web portal to all federal, state and local government web resources and services.